Time;durP1;ratioP1;P1;durP2;ratioP2;P2;SDS_P1;SDS_P2;PMS_P1;PMS_P2;Temp;Humidity;BMP_temperature;BMP_pressure;BME280_temperature;BME280_humidity;BME280_pressure;Samples;Min_cycle;Max_cycle;Signal;HPM_P1;HPM_P2
2022/04/12 00:01:25;;;;;;;0.00;0.00;;;;;;;;;;4975083;28;20238;-67
2022/04/12 00:03:53;;;;;;;0.00;0.00;;;;;;;;;;4975422;28;20199;-67
2022/04/12 00:06:20;;;;;;;0.50;0.50;;;;;;;;;;4975636;28;20312;-66
2022/04/12 00:08:49;;;;;;;0.77;0.77;;;;;;;;;;4974610;28;20293;-66
2022/04/12 00:11:17;;;;;;;0.40;0.40;;;;;;;;;;4975034;28;20695;-66
2022/04/12 00:13:44;;;;;;;0.00;0.00;;;;;;;;;;4975423;28;20216;-69
2022/04/12 00:16:12;;;;;;;0.73;0.73;;;;;;;;;;4975305;28;20202;-69
2022/04/12 00:21:24;;;;;;;0.00;0.00;;;;;;;;;;4973957;28;20754;-68
2022/04/12 00:23:53;;;;;;;1.20;0.63;;;;;;;;;;4975155;28;20204;-68
2022/04/12 00:26:22;;;;;;;0.27;0.27;;;;;;;;;;4975069;28;20241;-68
2022/04/12 00:28:49;;;;;;;0.00;0.00;;;;;;;;;;4974945;28;20202;-68
2022/04/12 00:31:17;;;;;;;0.00;0.00;;;;;;;;;;4975011;28;20208;-68
2022/04/12 00:33:44;;;;;;;1.03;0.63;;;;;;;;;;4973973;28;20703;-69
2022/04/12 00:36:11;;;;;;;0.43;0.43;;;;;;;;;;4974903;28;20208;-68
2022/04/12 00:38:40;;;;;;;0.87;0.87;;;;;;;;;;4974751;28;20206;-68
2022/04/12 00:41:11;;;;;;;1.17;0.30;;;;;;;;;;4974752;28;20253;-68
2022/04/12 00:43:39;;;;;;;0.00;0.00;;;;;;;;;;4974887;28;20225;-68
2022/04/12 00:46:07;;;;;;;0.00;0.00;;;;;;;;;;4973965;28;20663;-68
2022/04/12 00:48:35;;;;;;;0.17;0.17;;;;;;;;;;4974727;28;20198;-66
2022/04/12 00:51:03;;;;;;;0.00;0.00;;;;;;;;;;4974983;28;20198;-67
2022/04/12 00:53:30;;;;;;;0.20;0.20;;;;;;;;;;4974342;28;20210;-68
2022/04/12 00:55:58;;;;;;;0.63;0.63;;;;;;;;;;4974626;28;20201;-67
2022/04/12 00:58:27;;;;;;;0.00;0.00;;;;;;;;;;4973872;28;20213;-68
2022/04/12 01:00:55;;;;;;;0.00;0.00;;;;;;;;;;4974301;28;20234;-69
2022/04/12 01:03:22;;;;;;;0.00;0.00;;;;;;;;;;4974129;28;20194;-66
2022/04/12 01:05:50;;;;;;;0.30;0.30;;;;;;;;;;4974172;28;20237;-69
2022/04/12 01:08:18;;;;;;;0.00;0.00;;;;;;;;;;4974393;28;20205;-68
2022/04/12 01:10:47;;;;;;;0.00;0.00;;;;;;;;;;4972052;28;20198;-68
2022/04/12 01:13:14;;;;;;;0.00;0.00;;;;;;;;;;4973932;28;20202;-68
2022/04/12 01:15:43;;;;;;;0.00;0.00;;;;;;;;;;4974335;28;20206;-67
2022/04/12 01:18:11;;;;;;;0.00;0.00;;;;;;;;;;4974241;28;20297;-67
2022/04/12 01:20:38;;;;;;;0.00;0.00;;;;;;;;;;4973983;28;20664;-67
2022/04/12 01:23:09;;;;;;;0.00;0.00;;;;;;;;;;4973014;28;20682;-69
2022/04/12 01:25:38;;;;;;;0.00;0.00;;;;;;;;;;4973244;28;20225;-69
2022/04/12 01:28:05;;;;;;;0.00;0.00;;;;;;;;;;4974232;28;20210;-68
2022/04/12 01:30:33;;;;;;;0.00;0.00;;;;;;;;;;4973889;28;20202;-67
2022/04/12 01:33:00;;;;;;;0.00;0.00;;;;;;;;;;4973366;28;20209;-69
2022/04/12 01:35:28;;;;;;;0.23;0.23;;;;;;;;;;4973490;28;20216;-66
2022/04/12 01:37:55;;;;;;;0.10;0.10;;;;;;;;;;4974095;28;20198;-68
2022/04/12 01:40:22;;;;;;;0.00;0.00;;;;;;;;;;4973789;28;20667;-69
2022/04/12 01:42:52;;;;;;;0.93;0.93;;;;;;;;;;4973818;28;20202;-69
2022/04/12 01:45:20;;;;;;;0.73;0.73;;;;;;;;;;4972623;28;20233;-67
2022/04/12 01:47:48;;;;;;;0.00;0.00;;;;;;;;;;4973640;28;20203;-67
2022/04/12 01:50:15;;;;;;;0.20;0.20;;;;;;;;;;4973410;28;20233;-67
2022/04/12 01:52:42;;;;;;;0.30;0.30;;;;;;;;;;4973477;28;20198;-67
2022/04/12 01:55:11;;;;;;;0.60;0.40;;;;;;;;;;4973521;28;20210;-66
2022/04/12 01:57:39;;;;;;;0.00;0.00;;;;;;;;;;4972782;28;20221;-67
2022/04/12 02:00:09;;;;;;;0.10;0.10;;;;;;;;;;4973383;28;20261;-67
2022/04/12 02:02:36;;;;;;;0.20;0.17;;;;;;;;;;4973542;28;20664;-68
2022/04/12 02:05:04;;;;;;;0.00;0.00;;;;;;;;;;4973335;28;20233;-68
2022/04/12 02:07:31;;;;;;;0.03;0.03;;;;;;;;;;4973374;28;20206;-67
2022/04/12 02:09:58;;;;;;;0.00;0.00;;;;;;;;;;4972885;28;20206;-67
2022/04/12 02:12:27;;;;;;;0.00;0.00;;;;;;;;;;4973475;28;20309;-67
2022/04/12 02:14:54;;;;;;;1.47;1.37;;;;;;;;;;4973254;28;20198;-67
2022/04/12 02:17:23;;;;;;;3.73;0.83;;;;;;;;;;4973026;28;20651;-68
2022/04/12 02:19:51;;;;;;;0.27;0.27;;;;;;;;;;4973453;28;20289;-67
2022/04/12 02:22:18;;;;;;;0.23;0.20;;;;;;;;;;4972454;28;20285;-67
2022/04/12 02:24:45;;;;;;;0.17;0.10;;;;;;;;;;4973439;28;20209;-67
2022/04/12 02:27:13;;;;;;;0.00;0.00;;;;;;;;;;4973011;28;20242;-68
2022/04/12 02:29:40;;;;;;;0.10;0.10;;;;;;;;;;4973039;28;20218;-68
2022/04/12 02:32:08;;;;;;;0.37;0.37;;;;;;;;;;4973446;28;20202;-68
2022/04/12 02:34:36;;;;;;;0.30;0.27;;;;;;;;;;4972303;28;20199;-68
2022/04/12 02:37:04;;;;;;;0.40;0.30;;;;;;;;;;4973142;28;20202;-68
2022/04/12 02:39:31;;;;;;;0.00;0.00;;;;;;;;;;4973021;28;20206;-67
2022/04/12 02:41:59;;;;;;;0.13;0.13;;;;;;;;;;4973047;28;20548;-68
2022/04/12 02:44:26;;;;;;;0.00;0.00;;;;;;;;;;4973207;28;20202;-67
2022/04/12 02:46:54;;;;;;;0.10;0.10;;;;;;;;;;4972170;28;20241;-67
2022/04/12 02:49:22;;;;;;;0.83;0.60;;;;;;;;;;4972934;28;20198;-68
2022/04/12 02:51:51;;;;;;;0.10;0.10;;;;;;;;;;4973142;28;20221;-68
2022/04/12 02:54:19;;;;;;;0.00;0.00;;;;;;;;;;4972911;28;20195;-68
2022/04/12 02:56:46;;;;;;;0.20;0.20;;;;;;;;;;4972786;28;20203;-67
2022/04/12 02:59:14;;;;;;;0.10;0.10;;;;;;;;;;4971525;28;20660;-67
2022/04/12 03:01:43;;;;;;;7.03;6.43;;;;;;;;;;4973118;28;20214;-67
2022/04/12 03:04:10;;;;;;;0.00;0.00;;;;;;;;;;4975603;28;20202;-67
2022/04/12 03:06:38;;;;;;;0.00;0.00;;;;;;;;;;4976530;28;20222;-68
2022/04/12 03:09:06;;;;;;;0.00;0.00;;;;;;;;;;4976534;28;20202;-67
2022/04/12 03:11:34;;;;;;;0.00;0.00;;;;;;;;;;4974282;28;20245;-67
2022/04/12 03:14:01;;;;;;;0.20;0.20;;;;;;;;;;4976439;28;20209;-67
2022/04/12 03:16:29;;;;;;;0.00;0.00;;;;;;;;;;4976504;28;20202;-67
2022/04/12 03:18:56;;;;;;;0.00;0.00;;;;;;;;;;4976372;28;20206;-67
2022/04/12 03:21:23;;;;;;;0.00;0.00;;;;;;;;;;4976251;28;20252;-67
2022/04/12 03:23:50;;;;;;;0.13;0.13;;;;;;;;;;4975446;28;20205;-68
2022/04/12 03:26:19;;;;;;;1.10;1.03;;;;;;;;;;4976442;28;20233;-67
2022/04/12 03:28:47;;;;;;;0.33;0.20;;;;;;;;;;4976437;28;20205;-67
2022/04/12 03:31:14;;;;;;;0.00;0.00;;;;;;;;;;4975972;28;20325;-68
2022/04/12 03:33:41;;;;;;;0.10;0.10;;;;;;;;;;4976219;28;20225;-67
2022/04/12 03:36:09;;;;;;;0.00;0.00;;;;;;;;;;4974378;28;20876;-67
2022/04/12 03:38:36;;;;;;;1.13;1.13;;;;;;;;;;4976084;28;20198;-67
2022/04/12 03:41:04;;;;;;;0.00;0.00;;;;;;;;;;4975916;28;20634;-67
2022/04/12 03:43:33;;;;;;;0.20;0.20;;;;;;;;;;4975728;28;20238;-67
2022/04/12 03:46:01;;;;;;;0.10;0.10;;;;;;;;;;4974829;28;20890;-67
2022/04/12 03:48:28;;;;;;;0.10;0.10;;;;;;;;;;4975975;28;20656;-68
2022/04/12 03:50:55;;;;;;;0.37;0.37;;;;;;;;;;4975614;28;20667;-67
2022/04/12 03:53:23;;;;;;;0.00;0.00;;;;;;;;;;4975471;28;20205;-67
2022/04/12 03:55:50;;;;;;;26.57;24.23;;;;;;;;;;4975925;28;20214;-68
2022/04/12 03:58:19;;;;;;;6.60;1.70;;;;;;;;;;4974737;28;20202;-67
2022/04/12 04:00:48;;;;;;;0.30;0.30;;;;;;;;;;4975824;28;20699;-67
2022/04/12 04:03:17;;;;;;;0.10;0.10;;;;;;;;;;4975318;28;20201;-68
2022/04/12 04:05:45;;;;;;;0.30;0.30;;;;;;;;;;4975564;28;20560;-67
2022/04/12 04:08:12;;;;;;;0.00;0.00;;;;;;;;;;4975445;28;20210;-67
2022/04/12 04:10:39;;;;;;;0.00;0.00;;;;;;;;;;4974520;28;20201;-68
2022/04/12 04:13:08;;;;;;;0.20;0.20;;;;;;;;;;4975341;28;20226;-67
2022/04/12 04:15:37;;;;;;;0.00;0.00;;;;;;;;;;4975031;28;20638;-67
2022/04/12 04:18:06;;;;;;;0.07;0.07;;;;;;;;;;4975113;28;20210;-68
2022/04/12 04:20:33;;;;;;;0.00;0.00;;;;;;;;;;4975419;28;20207;-67
2022/04/12 04:23:01;;;;;;;0.00;0.00;;;;;;;;;;4973184;28;20210;-67
2022/04/12 04:25:29;;;;;;;0.10;0.10;;;;;;;;;;4973711;28;20599;-67
2022/04/12 04:27:56;;;;;;;3.90;3.03;;;;;;;;;;4975063;28;20198;-67
2022/04/12 04:30:24;;;;;;;0.33;0.33;;;;;;;;;;4975054;28;20265;-67
2022/04/12 04:32:52;;;;;;;0.30;0.30;;;;;;;;;;4974829;28;20607;-68
2022/04/12 04:35:20;;;;;;;0.00;0.00;;;;;;;;;;4972084;28;20230;-67
2022/04/12 04:37:49;;;;;;;0.00;0.00;;;;;;;;;;4974868;28;20198;-67
2022/04/12 04:40:17;;;;;;;0.20;0.10;;;;;;;;;;4974907;28;20608;-67
2022/04/12 04:42:44;;;;;;;0.10;0.10;;;;;;;;;;4974974;28;20217;-67
2022/04/12 04:45:12;;;;;;;0.23;0.23;;;;;;;;;;4974554;28;20257;-67
2022/04/12 04:47:49;;;;;;;0.00;0.00;;;;;;;;;;4973864;28;20733;-67
2022/04/12 04:50:17;;;;;;;0.00;0.00;;;;;;;;;;4974790;28;20734;-67
2022/04/12 04:52:46;;;;;;;0.10;0.10;;;;;;;;;;4974681;28;20265;-68
2022/04/12 04:55:13;;;;;;;0.00;0.00;;;;;;;;;;4974278;28;20199;-67
2022/04/12 04:57:41;;;;;;;0.00;0.00;;;;;;;;;;4973600;28;20297;-68
2022/04/12 05:00:09;;;;;;;0.00;0.00;;;;;;;;;;4971315;28;20234;-68
2022/04/12 05:02:36;;;;;;;0.00;0.00;;;;;;;;;;4974461;28;20194;-67
2022/04/12 05:05:04;;;;;;;0.00;0.00;;;;;;;;;;4974489;28;20202;-67
2022/04/12 05:07:31;;;;;;;0.00;0.00;;;;;;;;;;4974234;28;20268;-68
2022/04/12 05:10:00;;;;;;;0.00;0.00;;;;;;;;;;4972104;28;20685;-67
2022/04/12 05:12:27;;;;;;;0.30;0.30;;;;;;;;;;4974132;28;20688;-67
2022/04/12 05:14:55;;;;;;;0.00;0.00;;;;;;;;;;4974202;28;20655;-67
2022/04/12 05:17:26;;;;;;;0.37;0.37;;;;;;;;;;4973957;28;20213;-67
2022/04/12 05:19:54;;;;;;;0.00;0.00;;;;;;;;;;4974168;28;20198;-67
2022/04/12 05:22:21;;;;;;;0.10;0.10;;;;;;;;;;4972281;28;20195;-67
2022/04/12 05:24:48;;;;;;;0.00;0.00;;;;;;;;;;4973048;28;20210;-67
2022/04/12 05:27:17;;;;;;;0.07;0.07;;;;;;;;;;4973355;28;20237;-67
2022/04/12 05:29:45;;;;;;;0.43;0.43;;;;;;;;;;4974364;28;20210;-67
2022/04/12 05:32:13;;;;;;;0.53;0.53;;;;;;;;;;4973910;28;20780;-67
2022/04/12 05:34:40;;;;;;;0.00;0.00;;;;;;;;;;4971782;28;20199;-67
2022/04/12 05:37:08;;;;;;;0.00;0.00;;;;;;;;;;4973824;28;20194;-67
2022/04/12 05:39:35;;;;;;;0.37;0.37;;;;;;;;;;4974058;28;20206;-67
2022/04/12 05:42:03;;;;;;;0.00;0.00;;;;;;;;;;4973761;28;20213;-67
2022/04/12 05:44:33;;;;;;;0.00;0.00;;;;;;;;;;4973755;28;20586;-67
2022/04/12 05:47:01;;;;;;;0.00;0.00;;;;;;;;;;4972792;28;20230;-67
2022/04/12 05:49:28;;;;;;;0.00;0.00;;;;;;;;;;4973504;28;20206;-67
2022/04/12 05:51:56;;;;;;;0.50;0.30;;;;;;;;;;4973726;28;20198;-67
2022/04/12 05:54:23;;;;;;;0.00;0.00;;;;;;;;;;4973552;28;20216;-67
2022/04/12 05:56:51;;;;;;;0.17;0.17;;;;;;;;;;4974035;28;20201;-67
2022/04/12 05:59:18;;;;;;;0.00;0.00;;;;;;;;;;4972167;28;20202;-67
2022/04/12 06:01:47;;;;;;;0.00;0.00;;;;;;;;;;4973580;28;20198;-67
2022/04/12 06:04:14;;;;;;;0.00;0.00;;;;;;;;;;4973194;28;20206;-68
2022/04/12 06:06:42;;;;;;;0.63;0.40;;;;;;;;;;4974899;28;20229;-67
2022/04/12 06:09:10;;;;;;;0.30;0.30;;;;;;;;;;4976673;28;20197;-66
2022/04/12 06:11:37;;;;;;;0.00;0.00;;;;;;;;;;4978088;28;20214;-67
2022/04/12 06:14:05;;;;;;;1.90;1.80;;;;;;;;;;4973345;28;20671;-67
2022/04/12 06:16:32;;;;;;;0.10;0.10;;;;;;;;;;4973393;28;20574;-67
2022/04/12 06:19:01;;;;;;;0.17;0.13;;;;;;;;;;4973256;28;20221;-67
2022/04/12 06:21:29;;;;;;;0.00;0.00;;;;;;;;;;4973033;28;20213;-68
2022/04/12 06:23:56;;;;;;;0.00;0.00;;;;;;;;;;4970689;28;20198;-67
2022/04/12 06:26:23;;;;;;;0.13;0.13;;;;;;;;;;4972565;28;20221;-67
2022/04/12 06:28:51;;;;;;;0.00;0.00;;;;;;;;;;4973228;28;20301;-67
2022/04/12 06:31:18;;;;;;;1.00;1.00;;;;;;;;;;4972870;28;20675;-67
2022/04/12 06:33:45;;;;;;;1.10;1.10;;;;;;;;;;4973068;28;20678;-67
2022/04/12 06:36:14;;;;;;;0.10;0.10;;;;;;;;;;4971031;28;20663;-67
2022/04/12 06:38:42;;;;;;;0.17;0.17;;;;;;;;;;4977023;28;20222;-67
2022/04/12 06:41:11;;;;;;;0.00;0.00;;;;;;;;;;4976949;28;20198;-66
2022/04/12 06:43:38;;;;;;;0.17;0.17;;;;;;;;;;4976845;28;20230;-67
2022/04/12 06:46:05;;;;;;;0.00;0.00;;;;;;;;;;4977134;28;20194;-67
2022/04/12 06:48:33;;;;;;;0.30;0.30;;;;;;;;;;4976303;28;20256;-67
2022/04/12 06:51:00;;;;;;;0.20;0.20;;;;;;;;;;4977194;28;20201;-67
2022/04/12 06:53:29;;;;;;;0.10;0.10;;;;;;;;;;4976336;28;20297;-68
2022/04/12 06:55:56;;;;;;;0.10;0.10;;;;;;;;;;4976822;28;20198;-67
2022/04/12 06:58:24;;;;;;;0.30;0.30;;;;;;;;;;4976697;28;20566;-67
2022/04/12 07:00:51;;;;;;;0.03;0.03;;;;;;;;;;4973479;28;20253;-67
2022/04/12 07:03:18;;;;;;;0.40;0.40;;;;;;;;;;4975888;28;20198;-68
2022/04/12 07:05:49;;;;;;;3.53;1.23;;;;;;;;;;4975812;28;20560;-67
2022/04/12 07:08:16;;;;;;;1.13;0.50;;;;;;;;;;4976670;28;20230;-67
2022/04/12 07:10:45;;;;;;;0.10;0.10;;;;;;;;;;4976737;28;20198;-68
2022/04/12 07:13:12;;;;;;;0.00;0.00;;;;;;;;;;4976378;28;20302;-67
2022/04/12 07:15:40;;;;;;;0.83;0.83;;;;;;;;;;4975865;28;20569;-67
2022/04/12 07:18:07;;;;;;;0.50;0.50;;;;;;;;;;4957219;29;20203;-68
2022/04/12 07:20:35;;;;;;;0.00;0.00;;;;;;;;;;4956938;29;20241;-67
2022/04/12 07:23:02;;;;;;;0.00;0.00;;;;;;;;;;4957009;28;20203;-68
2022/04/12 07:25:29;;;;;;;1.75;1.17;;;;;;;;;;4956920;29;20201;-68
2022/04/12 07:27:58;;;;;;;0.55;0.30;;;;;;;;;;4958501;28;20260;-67
2022/04/12 07:30:25;;;;;;;0.00;0.00;;;;;;;;;;4975352;28;20274;-68
2022/04/12 07:32:53;;;;;;;0.00;0.00;;;;;;;;;;4976018;28;20198;-68
2022/04/12 07:35:20;;;;;;;0.00;0.00;;;;;;;;;;4975926;28;20564;-67
2022/04/12 07:37:47;;;;;;;0.00;0.00;;;;;;;;;;4976112;28;20677;-67
2022/04/12 07:40:15;;;;;;;1.33;1.20;;;;;;;;;;4975160;28;20241;-68
2022/04/12 07:42:42;;;;;;;0.45;0.45;;;;;;;;;;4976092;28;20198;-68
2022/04/12 07:45:11;;;;;;;0.45;0.45;;;;;;;;;;4975862;28;20199;-68
2022/04/12 07:47:39;;;;;;;0.30;0.30;;;;;;;;;;4975778;28;20226;-68
2022/04/12 07:50:07;;;;;;;0.00;0.00;;;;;;;;;;4974973;28;20710;-68
2022/04/12 07:52:34;;;;;;;0.28;0.28;;;;;;;;;;4974562;28;20749;-68
2022/04/12 07:55:01;;;;;;;0.15;0.15;;;;;;;;;;4975868;28;20202;-68
2022/04/12 07:57:29;;;;;;;0.10;0.10;;;;;;;;;;4975605;28;20237;-68
2022/04/12 07:59:56;;;;;;;0.00;0.00;;;;;;;;;;4975801;28;20304;-68
2022/04/12 08:02:25;;;;;;;0.00;0.00;;;;;;;;;;4975592;28;20213;-68
2022/04/12 08:04:54;;;;;;;0.30;0.30;;;;;;;;;;4974501;28;20578;-68
2022/04/12 08:07:22;;;;;;;0.03;0.03;;;;;;;;;;4975447;28;20237;-67
2022/04/12 08:09:49;;;;;;;0.00;0.00;;;;;;;;;;4975647;28;20205;-68
2022/04/12 08:12:16;;;;;;;0.00;0.00;;;;;;;;;;4975519;28;20249;-67
2022/04/12 08:14:44;;;;;;;0.45;0.45;;;;;;;;;;4975507;28;20295;-67
2022/04/12 08:17:11;;;;;;;0.00;0.00;;;;;;;;;;4974339;28;20289;-66
2022/04/12 08:19:40;;;;;;;1.52;1.42;;;;;;;;;;4975085;28;20199;-67
2022/04/12 08:22:08;;;;;;;0.00;0.00;;;;;;;;;;4975253;28;20202;-67
2022/04/12 08:24:36;;;;;;;0.75;0.75;;;;;;;;;;4975410;28;20656;-67
2022/04/12 08:27:04;;;;;;;0.52;0.45;;;;;;;;;;4975411;28;20324;-68
2022/04/12 08:29:32;;;;;;;3.00;2.58;;;;;;;;;;4973395;28;20199;-66
2022/04/12 08:31:59;;;;;;;1.65;1.35;;;;;;;;;;4975025;28;20735;-67
2022/04/12 08:34:27;;;;;;;0.63;0.47;;;;;;;;;;4974843;28;20719;-66
2022/04/12 08:36:56;;;;;;;0.00;0.00;;;;;;;;;;4974891;28;20302;-68
2022/04/12 08:39:23;;;;;;;0.20;0.20;;;;;;;;;;4974801;28;20294;-66
2022/04/12 08:41:52;;;;;;;1.70;0.50;;;;;;;;;;4974011;28;20212;-66
2022/04/12 08:44:20;;;;;;;0.25;0.25;;;;;;;;;;4974802;28;20194;-66
2022/04/12 08:46:48;;;;;;;0.47;0.32;;;;;;;;;;4974659;28;20211;-67
2022/04/12 08:49:16;;;;;;;0.00;0.00;;;;;;;;;;4974511;28;20237;-67
2022/04/12 08:51:43;;;;;;;1.15;0.28;;;;;;;;;;4974709;28;20572;-66
2022/04/12 08:54:12;;;;;;;2.05;0.73;;;;;;;;;;4972801;28;20214;-67
2022/04/12 08:56:40;;;;;;;0.20;0.20;;;;;;;;;;4974771;28;20207;-67
2022/04/12 08:59:07;;;;;;;0.75;0.60;;;;;;;;;;4974723;28;20254;-68
2022/04/12 09:01:34;;;;;;;0.45;0.45;;;;;;;;;;4974266;28;20241;-67
2022/04/12 09:04:02;;;;;;;0.40;0.28;;;;;;;;;;4974604;28;20198;-67
2022/04/12 09:06:29;;;;;;;0.30;0.30;;;;;;;;;;4972346;28;20203;-67
2022/04/12 09:08:57;;;;;;;0.30;0.30;;;;;;;;;;4974308;28;20698;-67
2022/04/12 09:11:27;;;;;;;0.88;0.75;;;;;;;;;;4974169;28;20210;-67
2022/04/12 09:14:01;;;;;;;0.10;0.10;;;;;;;;;;4974296;28;20198;-68
2022/04/12 09:16:28;;;;;;;2.38;0.22;;;;;;;;;;4974350;28;20202;-67
2022/04/12 09:18:57;;;;;;;0.25;0.25;;;;;;;;;;4967634;28;20210;-67
2022/04/12 09:21:27;;;;;;;0.05;0.05;;;;;;;;;;4954959;28;20214;-67
2022/04/12 09:23:56;;;;;;;0.13;0.13;;;;;;;;;;4955106;28;20203;-67
2022/04/12 09:26:24;;;;;;;0.05;0.05;;;;;;;;;;4954835;28;20229;-67
2022/04/12 09:28:54;;;;;;;0.03;0.03;;;;;;;;;;4969240;28;20245;-67
2022/04/12 09:31:21;;;;;;;0.00;0.00;;;;;;;;;;4973901;28;20204;-67
2022/04/12 09:33:50;;;;;;;0.00;0.00;;;;;;;;;;4973929;28;20208;-67
2022/04/12 09:36:17;;;;;;;0.35;0.35;;;;;;;;;;4974111;28;20202;-67
2022/04/12 09:38:46;;;;;;;0.00;0.00;;;;;;;;;;4973859;28;20206;-67
2022/04/12 09:41:18;;;;;;;0.15;0.15;;;;;;;;;;4973095;28;20301;-66
2022/04/12 09:44:06;;;;;;;0.47;0.47;;;;;;;;;;4973906;28;20203;-67
2022/04/12 09:46:33;;;;;;;0.22;0.22;;;;;;;;;;4973922;28;20677;-67
2022/04/12 09:49:01;;;;;;;0.43;0.25;;;;;;;;;;4973554;28;20226;-67
2022/04/12 09:51:28;;;;;;;1.25;1.00;;;;;;;;;;4972315;28;20405;-67
2022/04/12 09:53:56;;;;;;;0.25;0.25;;;;;;;;;;4973117;28;20575;-67
2022/04/12 09:56:24;;;;;;;0.00;0.00;;;;;;;;;;4971695;28;20198;-67
2022/04/12 09:58:54;;;;;;;1.23;0.68;;;;;;;;;;4973625;28;20667;-67
2022/04/12 10:01:23;;;;;;;0.65;0.65;;;;;;;;;;4973209;28;20230;-67
2022/04/12 10:03:51;;;;;;;0.05;0.05;;;;;;;;;;4973504;28;20672;-68
2022/04/12 10:06:23;;;;;;;0.55;0.55;;;;;;;;;;4970586;28;20206;-67
2022/04/12 10:08:54;;;;;;;1.05;1.02;;;;;;;;;;4972387;28;20230;-68
2022/04/12 10:11:22;;;;;;;0.75;0.75;;;;;;;;;;4972790;28;20199;-67
2022/04/12 10:13:49;;;;;;;2.10;1.85;;;;;;;;;;4973455;28;20198;-67
2022/04/12 10:16:18;;;;;;;5.97;1.98;;;;;;;;;;4973316;28;20209;-67
2022/04/12 10:18:47;;;;;;;0.00;0.00;;;;;;;;;;4972006;28;20210;-68
2022/04/12 10:21:15;;;;;;;0.75;0.65;;;;;;;;;;4973177;28;20759;-67
2022/04/12 10:23:43;;;;;;;0.30;0.30;;;;;;;;;;4973301;28;20198;-68
2022/04/12 10:26:11;;;;;;;0.20;0.20;;;;;;;;;;4973511;28;20245;-68
2022/04/12 10:28:40;;;;;;;0.00;0.00;;;;;;;;;;4973108;28;20320;-69
2022/04/12 10:31:21;;;;;;;1.15;1.13;;;;;;;;;;4970818;28;20205;-69
2022/04/12 10:33:54;;;;;;;0.28;0.28;;;;;;;;;;4973187;28;20203;-67
2022/04/12 10:36:21;;;;;;;1.73;1.35;;;;;;;;;;4973317;28;20199;-67
2022/04/12 10:38:48;;;;;;;0.00;0.00;;;;;;;;;;4973267;28;20202;-67
2022/04/12 10:41:17;;;;;;;0.00;0.00;;;;;;;;;;4972582;28;20297;-67
2022/04/12 10:43:45;;;;;;;0.00;0.00;;;;;;;;;;4973102;28;20678;-68
2022/04/12 10:46:13;;;;;;;0.73;0.73;;;;;;;;;;4973386;28;20615;-68
2022/04/12 10:48:41;;;;;;;0.73;0.73;;;;;;;;;;4972997;28;20284;-68
2022/04/12 10:51:09;;;;;;;1.20;0.30;;;;;;;;;;4972555;28;20207;-68
2022/04/12 10:53:58;;;;;;;0.80;0.80;;;;;;;;;;4953888;28;20628;-67
2022/04/12 10:56:27;;;;;;;0.03;0.03;;;;;;;;;;4953692;28;20199;-68
2022/04/12 10:58:54;;;;;;;1.10;1.10;;;;;;;;;;4953691;28;20246;-67
2022/04/12 11:01:32;;;;;;;0.40;0.40;;;;;;;;;;4953363;28;20242;-67
2022/04/12 11:04:01;;;;;;;0.93;0.90;;;;;;;;;;4957198;28;20198;-67
2022/04/12 11:06:31;;;;;;;0.57;0.43;;;;;;;;;;4972068;28;20213;-67
2022/04/12 11:09:10;;;;;;;0.28;0.28;;;;;;;;;;4973053;28;20234;-67
2022/04/12 11:11:40;;;;;;;0.50;0.50;;;;;;;;;;4973398;28;20240;-67
2022/04/12 11:14:27;;;;;;;0.77;0.77;;;;;;;;;;4973003;28;20238;-67
2022/04/12 11:16:59;;;;;;;0.00;0.00;;;;;;;;;;4971673;28;20559;-67
2022/04/12 11:19:26;;;;;;;0.30;0.13;;;;;;;;;;4972558;28;20668;-68
2022/04/12 11:22:00;;;;;;;1.20;1.10;;;;;;;;;;4972995;28;20289;-67
2022/04/12 11:24:27;;;;;;;1.48;0.88;;;;;;;;;;4974344;28;20214;-67
2022/04/12 11:27:03;;;;;;;0.20;0.20;;;;;;;;;;4976233;28;20694;-68
2022/04/12 11:29:31;;;;;;;0.00;0.00;;;;;;;;;;4974105;28;20230;-68
2022/04/12 11:31:59;;;;;;;0.05;0.05;;;;;;;;;;4976297;28;20580;-67
2022/04/12 11:34:27;;;;;;;0.20;0.08;;;;;;;;;;4976174;28;20194;-68
2022/04/12 11:36:56;;;;;;;0.00;0.00;;;;;;;;;;4976087;28;20240;-68
2022/04/12 11:39:25;;;;;;;0.20;0.20;;;;;;;;;;4974511;28;20202;-68
2022/04/12 11:41:58;;;;;;;0.00;0.00;;;;;;;;;;4975816;28;20204;-68
2022/04/12 11:44:25;;;;;;;0.00;0.00;;;;;;;;;;4976078;28;20322;-68
2022/04/12 11:47:01;;;;;;;1.40;1.30;;;;;;;;;;4975882;28;20199;-67
2022/04/12 11:49:29;;;;;;;0.38;0.38;;;;;;;;;;4973329;28;20712;-68
2022/04/12 11:51:58;;;;;;;0.98;0.70;;;;;;;;;;4975616;28;20257;-69
2022/04/12 11:54:27;;;;;;;0.00;0.00;;;;;;;;;;4975590;28;20208;-69
2022/04/12 11:56:55;;;;;;;0.75;0.47;;;;;;;;;;4975625;28;20208;-68
2022/04/12 11:59:23;;;;;;;0.15;0.15;;;;;;;;;;4975444;28;20217;-69
2022/04/12 12:01:51;;;;;;;0.20;0.20;;;;;;;;;;4974770;28;20685;-69
2022/04/12 12:04:19;;;;;;;0.00;0.00;;;;;;;;;;4975792;28;20202;-69
2022/04/12 12:06:57;;;;;;;0.43;0.28;;;;;;;;;;4975346;28;20202;-69
2022/04/12 12:09:24;;;;;;;0.00;0.00;;;;;;;;;;4975241;28;20266;-69
2022/04/12 12:11:53;;;;;;;0.00;0.00;;;;;;;;;;4975658;28;20234;-69
2022/04/12 12:14:22;;;;;;;0.43;0.43;;;;;;;;;;4974808;28;20186;-68
2022/04/12 12:17:02;;;;;;;0.20;0.20;;;;;;;;;;4975383;28;20552;-67
2022/04/12 12:19:33;;;;;;;0.63;0.63;;;;;;;;;;4975232;28;20224;-69
2022/04/12 12:22:01;;;;;;;0.00;0.00;;;;;;;;;;4975628;28;20210;-69
2022/04/12 12:24:28;;;;;;;0.00;0.00;;;;;;;;;;4975206;28;20245;-69
2022/04/12 12:26:58;;;;;;;0.00;0.00;;;;;;;;;;4974462;28;20206;-69
2022/04/12 12:29:26;;;;;;;0.10;0.10;;;;;;;;;;4974822;28;20233;-69
2022/04/12 12:31:57;;;;;;;0.00;0.00;;;;;;;;;;4975233;28;20198;-69
2022/04/12 12:34:28;;;;;;;1.00;0.63;;;;;;;;;;4974879;28;20202;-69
2022/04/12 12:36:56;;;;;;;0.20;0.20;;;;;;;;;;4975066;28;20671;-68
2022/04/12 12:39:24;;;;;;;0.40;0.40;;;;;;;;;;4974084;28;20209;-68
2022/04/12 12:41:56;;;;;;;0.40;0.40;;;;;;;;;;4975103;28;20229;-68
2022/04/12 12:44:25;;;;;;;0.03;0.00;;;;;;;;;;4974933;28;20202;-70
2022/04/12 12:46:59;;;;;;;0.00;0.00;;;;;;;;;;4975045;28;20208;-69
2022/04/12 12:49:35;;;;;;;0.00;0.00;;;;;;;;;;4973583;28;20218;-68
2022/04/12 12:52:04;;;;;;;1.00;0.60;;;;;;;;;;4955522;28;20202;-69
2022/04/12 12:54:31;;;;;;;0.52;0.52;;;;;;;;;;4955293;28;20237;-69
2022/04/12 12:57:01;;;;;;;0.22;0.22;;;;;;;;;;4955501;28;20206;-69
2022/04/12 12:59:33;;;;;;;1.55;1.10;;;;;;;;;;4954855;28;20210;-67
2022/04/12 13:02:08;;;;;;;1.10;0.60;;;;;;;;;;4961547;28;20206;-69
2022/04/12 13:04:38;;;;;;;0.20;0.20;;;;;;;;;;4974468;28;20293;-69
2022/04/12 13:07:07;;;;;;;0.55;0.47;;;;;;;;;;4970526;28;20260;-69
2022/04/12 13:09:34;;;;;;;0.52;0.52;;;;;;;;;;4974437;28;20236;-69
2022/04/12 13:12:02;;;;;;;0.00;0.00;;;;;;;;;;4974233;28;20205;-68
2022/04/12 13:14:29;;;;;;;0.25;0.15;;;;;;;;;;4974410;28;20203;-68
2022/04/12 13:16:59;;;;;;;0.00;0.00;;;;;;;;;;4973356;28;20209;-68
2022/04/12 13:19:29;;;;;;;0.00;0.00;;;;;;;;;;4973941;28;20199;-68
2022/04/12 13:21:59;;;;;;;0.00;0.00;;;;;;;;;;4974261;28;20204;-69
2022/04/12 13:24:26;;;;;;;0.55;0.38;;;;;;;;;;4974267;28;20293;-68
2022/04/12 13:26:54;;;;;;;0.00;0.00;;;;;;;;;;4974178;28;20285;-68
2022/04/12 13:29:22;;;;;;;0.10;0.10;;;;;;;;;;4970051;28;20725;-68
2022/04/12 13:31:50;;;;;;;7.13;2.45;;;;;;;;;;4972618;28;20659;-68
2022/04/12 13:34:19;;;;;;;0.45;0.45;;;;;;;;;;4973861;28;20249;-68
2022/04/12 13:36:46;;;;;;;0.20;0.20;;;;;;;;;;4974093;28;20664;-69
2022/04/12 13:39:14;;;;;;;0.35;0.32;;;;;;;;;;4973771;28;20253;-68
2022/04/12 13:41:43;;;;;;;0.00;0.00;;;;;;;;;;4973429;28;20202;-68
2022/04/12 13:44:12;;;;;;;0.00;0.00;;;;;;;;;;4967848;28;20210;-68
2022/04/12 13:46:40;;;;;;;0.00;0.00;;;;;;;;;;4973123;28;20632;-69
2022/04/12 13:49:07;;;;;;;0.00;0.00;;;;;;;;;;4973741;28;20703;-69
2022/04/12 13:51:37;;;;;;;0.28;0.22;;;;;;;;;;4973879;28;20226;-68
2022/04/12 13:54:04;;;;;;;0.00;0.00;;;;;;;;;;4971517;28;20203;-68
2022/04/12 13:56:32;;;;;;;0.00;0.00;;;;;;;;;;4973813;28;20301;-69
2022/04/12 13:59:02;;;;;;;0.10;0.10;;;;;;;;;;4973614;28;20206;-68
2022/04/12 14:01:30;;;;;;;1.25;0.80;;;;;;;;;;4973644;28;20321;-68
2022/04/12 14:03:57;;;;;;;0.00;0.00;;;;;;;;;;4973671;28;20198;-68
2022/04/12 14:06:25;;;;;;;1.00;0.65;;;;;;;;;;4972844;28;20195;-68
2022/04/12 14:08:54;;;;;;;0.65;0.65;;;;;;;;;;4963157;28;20678;-68
2022/04/12 14:11:21;;;;;;;0.30;0.30;;;;;;;;;;4972772;28;20206;-68
2022/04/12 14:13:49;;;;;;;0.00;0.00;;;;;;;;;;4973350;28;20210;-68
2022/04/12 14:16:16;;;;;;;0.00;0.00;;;;;;;;;;4970773;28;20202;-68
2022/04/12 14:18:44;;;;;;;0.00;0.00;;;;;;;;;;4973300;28;20209;-68
2022/04/12 14:21:12;;;;;;;0.00;0.00;;;;;;;;;;4973275;28;20210;-68
2022/04/12 14:23:42;;;;;;;0.00;0.00;;;;;;;;;;4973409;28;20202;-68
2022/04/12 14:26:11;;;;;;;0.10;0.10;;;;;;;;;;4970981;28;20233;-68
2022/04/12 14:28:39;;;;;;;0.00;0.00;;;;;;;;;;4972539;28;20727;-68
2022/04/12 14:31:07;;;;;;;0.00;0.00;;;;;;;;;;4973579;28;20199;-68
2022/04/12 14:33:35;;;;;;;0.00;0.00;;;;;;;;;;4973286;28;20237;-68
2022/04/12 14:36:03;;;;;;;0.55;0.55;;;;;;;;;;4972347;28;20553;-68
2022/04/12 14:38:30;;;;;;;0.50;0.50;;;;;;;;;;4969743;28;20237;-68
2022/04/12 14:40:58;;;;;;;0.20;0.20;;;;;;;;;;4972464;28;20202;-68
2022/04/12 14:43:27;;;;;;;0.10;0.10;;;;;;;;;;4973017;28;20222;-68
2022/04/12 14:45:55;;;;;;;0.00;0.00;;;;;;;;;;4973101;28;20735;-68
2022/04/12 14:48:23;;;;;;;0.00;0.00;;;;;;;;;;4972215;28;20203;-68
2022/04/12 14:50:50;;;;;;;1.58;1.50;;;;;;;;;;4972958;28;20230;-68
2022/04/12 14:53:19;;;;;;;0.00;0.00;;;;;;;;;;4972951;28;20194;-68